createdAt,value
2023-04-24T00:00:06.744Z,987.19
2023-04-24T00:01:06.758Z,987.22
2023-04-24T00:02:06.796Z,987.14
2023-04-24T00:03:06.835Z,987.16
2023-04-24T00:04:07.026Z,987.08
2023-04-24T00:05:06.785Z,987.10
2023-04-24T00:06:06.744Z,987.12
2023-04-24T00:07:06.710Z,987.09
2023-04-24T00:08:06.684Z,987.07
2023-04-24T00:09:06.696Z,987.09
2023-04-24T00:10:06.665Z,987.11
2023-04-24T00:11:06.685Z,987.15
2023-04-24T00:12:06.672Z,987.12
2023-04-24T00:13:06.670Z,987.13
2023-04-24T00:14:06.642Z,987.09
2023-04-24T00:15:06.706Z,987.07
2023-04-24T00:16:06.620Z,986.98
2023-04-24T00:17:06.687Z,986.99
2023-04-24T00:18:06.672Z,987.05
2023-04-24T00:19:06.617Z,987.09
2023-04-24T00:20:06.602Z,987.10
2023-04-24T00:21:06.598Z,987.07
2023-04-24T00:22:06.574Z,987.10
2023-04-24T00:23:06.578Z,987.05
2023-04-24T00:24:06.580Z,987.04
2023-04-24T00:25:06.555Z,987.07
2023-04-24T00:26:06.616Z,987.08
2023-04-24T00:27:06.556Z,987.09
2023-04-24T00:28:06.543Z,987.00
2023-04-24T00:29:06.533Z,986.99
2023-04-24T00:30:06.519Z,987.02
2023-04-24T00:31:06.506Z,986.97
2023-04-24T00:32:06.542Z,987.01
2023-04-24T00:33:06.525Z,987.00
2023-04-24T00:34:06.540Z,986.92
2023-04-24T00:35:06.486Z,986.99
2023-04-24T00:36:07.485Z,986.93
2023-04-24T00:37:06.458Z,986.92
2023-04-24T00:38:06.442Z,986.95
2023-04-24T00:39:07.453Z,986.88
2023-04-24T00:40:06.479Z,986.86
2023-04-24T00:41:06.472Z,986.82
2023-04-24T00:42:06.411Z,986.85
2023-04-24T00:43:07.183Z,986.93
2023-04-24T00:44:06.456Z,986.87
2023-04-24T00:45:06.452Z,986.87
2023-04-24T00:46:06.477Z,986.80
2023-04-24T00:47:06.418Z,986.79
2023-04-24T00:48:06.453Z,986.78
2023-04-24T00:49:06.381Z,986.71
2023-04-24T00:50:06.398Z,986.72
2023-04-24T00:51:06.388Z,986.74
2023-04-24T00:52:06.394Z,986.70
2023-04-24T00:53:06.393Z,986.71
2023-04-24T00:54:06.348Z,986.72
2023-04-24T00:55:06.354Z,986.66
2023-04-24T00:56:06.330Z,986.72
2023-04-24T00:57:06.316Z,986.62
2023-04-24T00:58:06.335Z,986.71
2023-04-24T00:59:06.328Z,986.69
2023-04-24T01:00:06.330Z,986.68
2023-04-24T01:01:07.255Z,986.77
2023-04-24T01:02:06.374Z,986.73
2023-04-24T01:03:06.435Z,986.73
2023-04-24T01:04:06.489Z,986.73
2023-04-24T01:05:06.292Z,986.73
2023-04-24T01:06:06.373Z,986.69
2023-04-24T01:07:06.230Z,986.69
2023-04-24T01:08:06.228Z,986.72
2023-04-24T01:09:06.197Z,986.71
2023-04-24T01:10:06.207Z,986.59
2023-04-24T01:11:06.257Z,986.61
2023-04-24T01:12:06.195Z,986.61
2023-04-24T01:13:06.175Z,986.55
2023-04-24T01:14:06.184Z,986.53
2023-04-24T01:15:06.163Z,986.59
2023-04-24T01:16:06.181Z,986.52
2023-04-24T01:17:06.162Z,986.58
2023-04-24T01:18:06.157Z,986.47
2023-04-24T01:19:06.131Z,986.49
2023-04-24T01:20:06.127Z,986.47
2023-04-24T01:21:06.127Z,986.41
2023-04-24T01:22:06.140Z,986.43
2023-04-24T01:23:06.117Z,986.41
2023-04-24T01:24:06.086Z,986.43
2023-04-24T01:25:06.192Z,986.42
2023-04-24T01:26:06.086Z,986.43
2023-04-24T01:27:06.103Z,986.37
2023-04-24T01:28:06.073Z,986.36
2023-04-24T01:29:06.060Z,986.40
2023-04-24T01:30:06.085Z,986.32
2023-04-24T01:31:06.147Z,986.35
2023-04-24T01:32:06.045Z,986.38
2023-04-24T01:33:06.684Z,986.38
2023-04-24T01:34:06.007Z,986.35
2023-04-24T01:35:06.096Z,986.36
2023-04-24T01:36:06.009Z,986.36
2023-04-24T01:37:06.004Z,986.34
2023-04-24T01:38:06.005Z,986.35
2023-04-24T01:39:05.996Z,986.35
2023-04-24T01:40:05.964Z,986.39
2023-04-24T01:41:05.966Z,986.38
2023-04-24T01:42:05.976Z,986.33
2023-04-24T01:43:05.958Z,986.35
2023-04-24T01:44:05.961Z,986.32
2023-04-24T01:45:05.952Z,986.33
2023-04-24T01:46:05.952Z,986.36
2023-04-24T01:47:05.919Z,986.31
2023-04-24T01:48:05.964Z,986.37
2023-04-24T01:49:05.902Z,986.41
2023-04-24T01:50:05.938Z,986.40
2023-04-24T01:51:05.927Z,986.39
2023-04-24T01:52:05.944Z,986.35
2023-04-24T01:53:05.878Z,986.38
2023-04-24T01:54:05.858Z,986.40
2023-04-24T01:55:05.871Z,986.37
2023-04-24T01:56:05.859Z,986.39
2023-04-24T01:57:05.852Z,986.45
2023-04-24T01:58:05.846Z,986.44
2023-04-24T01:59:05.868Z,986.42
2023-04-24T02:00:05.808Z,986.45
2023-04-24T02:01:05.847Z,986.45
2023-04-24T02:02:05.925Z,986.42
2023-04-24T02:03:06.431Z,986.42
2023-04-24T02:04:06.013Z,986.40
2023-04-24T02:05:05.798Z,986.41
2023-04-24T02:06:05.798Z,986.45
2023-04-24T02:07:05.781Z,986.46
2023-04-24T02:08:05.796Z,986.47
2023-04-24T02:09:05.752Z,986.37
2023-04-24T02:10:05.759Z,986.34
2023-04-24T02:11:05.762Z,986.31
2023-04-24T02:12:05.753Z,986.31
2023-04-24T02:13:05.754Z,986.32
2023-04-24T02:14:05.729Z,986.31
2023-04-24T02:15:05.703Z,986.28
2023-04-24T02:16:05.725Z,986.30
2023-04-24T02:17:05.704Z,986.33
2023-04-24T02:18:05.788Z,986.32
2023-04-24T02:19:05.679Z,986.30
2023-04-24T02:20:05.661Z,986.34
2023-04-24T02:21:05.664Z,986.30
2023-04-24T02:22:05.652Z,986.29
2023-04-24T02:23:05.658Z,986.29
2023-04-24T02:24:05.664Z,986.31
2023-04-24T02:25:05.648Z,986.29
2023-04-24T02:26:05.674Z,986.32
2023-04-24T02:27:05.614Z,986.37
2023-04-24T02:28:05.634Z,986.30
2023-04-24T02:29:05.595Z,986.27
2023-04-24T02:30:05.603Z,986.30
2023-04-24T02:31:05.621Z,986.25
2023-04-24T02:32:05.607Z,986.27
2023-04-24T02:33:05.660Z,986.36
2023-04-24T02:34:05.621Z,986.27
2023-04-24T02:35:05.573Z,986.27
2023-04-24T02:36:05.541Z,986.30
2023-04-24T02:37:05.513Z,986.35
2023-04-24T02:38:05.518Z,986.27
2023-04-24T02:39:05.542Z,986.23
2023-04-24T02:40:05.515Z,986.21
2023-04-24T02:41:05.492Z,986.22
2023-04-24T02:42:05.489Z,986.20
2023-04-24T02:43:05.502Z,986.12
2023-04-24T02:44:05.577Z,986.11
2023-04-24T02:45:05.477Z,986.19
2023-04-24T02:46:05.561Z,986.12
2023-04-24T02:47:05.469Z,986.09
2023-04-24T02:48:05.465Z,986.07
2023-04-24T02:49:05.454Z,986.04
2023-04-24T02:50:05.451Z,986.01
2023-04-24T02:51:05.444Z,986.01
2023-04-24T02:52:05.410Z,985.96
2023-04-24T02:53:05.426Z,985.96
2023-04-24T02:54:05.405Z,985.94
2023-04-24T02:55:05.395Z,985.95
2023-04-24T02:56:05.463Z,986.00
2023-04-24T02:57:05.402Z,986.01
2023-04-24T02:58:05.372Z,985.98
2023-04-24T02:59:05.351Z,985.99
2023-04-24T03:00:05.355Z,985.97
2023-04-24T03:01:05.384Z,986.00
2023-04-24T03:02:05.375Z,985.93
2023-04-24T03:03:05.541Z,985.97
2023-04-24T03:04:05.422Z,985.92
2023-04-24T03:05:05.373Z,985.93
2023-04-24T03:06:05.344Z,985.91
2023-04-24T03:07:05.326Z,985.98
2023-04-24T03:08:05.289Z,985.90
2023-04-24T03:09:05.301Z,985.85
2023-04-24T03:10:05.271Z,985.94
2023-04-24T03:11:05.299Z,985.88
2023-04-24T03:12:05.276Z,985.84
2023-04-24T03:13:05.307Z,985.90
2023-04-24T03:14:05.243Z,985.82
2023-04-24T03:15:06.242Z,985.89
2023-04-24T03:16:05.323Z,985.83
2023-04-24T03:17:05.227Z,985.75
2023-04-24T03:18:05.253Z,985.75
2023-04-24T03:19:05.214Z,985.77
2023-04-24T03:20:05.193Z,985.73
2023-04-24T03:21:05.201Z,985.73
2023-04-24T03:22:05.187Z,985.75
2023-04-24T03:23:05.204Z,985.75
2023-04-24T03:24:05.174Z,985.73
2023-04-24T03:25:05.161Z,985.69
2023-04-24T03:26:05.149Z,985.70
2023-04-24T03:27:05.131Z,985.72
2023-04-24T03:28:05.152Z,985.71
2023-04-24T03:29:05.148Z,985.65
2023-04-24T03:30:05.117Z,985.70
2023-04-24T03:31:05.163Z,985.70
2023-04-24T03:32:05.114Z,985.72
2023-04-24T03:33:05.202Z,985.79
2023-04-24T03:34:05.114Z,985.73
2023-04-24T03:35:05.084Z,985.72
2023-04-24T03:36:05.093Z,985.73
2023-04-24T03:37:05.061Z,985.74
2023-04-24T03:38:05.081Z,985.69
2023-04-24T03:39:05.078Z,985.66
2023-04-24T03:40:05.675Z,985.71
2023-04-24T03:41:05.039Z,985.70
2023-04-24T03:42:06.020Z,985.69
2023-04-24T03:43:05.034Z,985.71
2023-04-24T03:44:05.017Z,985.72
2023-04-24T03:45:05.090Z,985.73
2023-04-24T03:46:05.037Z,985.64
2023-04-24T04:02:03.573Z,985.94
2023-04-24T04:03:03.722Z,985.92
2023-04-24T04:04:03.567Z,985.92
2023-04-24T04:05:03.483Z,985.97
2023-04-24T04:06:03.383Z,985.91
2023-04-24T04:07:03.390Z,985.91
2023-04-24T04:08:03.383Z,985.94
2023-04-24T04:09:03.409Z,985.93
2023-04-24T04:10:04.563Z,986.00
2023-04-24T04:11:05.542Z,985.95
2023-04-24T04:12:05.468Z,986.04
2023-04-24T04:13:04.460Z,986.04
2023-04-24T04:14:04.479Z,986.03
2023-04-24T04:15:04.442Z,985.98
2023-04-24T04:16:04.586Z,986.02
2023-04-24T04:17:04.435Z,986.00
2023-04-24T04:18:04.543Z,985.98
2023-04-24T04:19:04.429Z,986.02
2023-04-24T04:20:04.417Z,985.95
2023-04-24T04:21:04.567Z,986.01
2023-04-24T04:22:04.420Z,986.00
2023-04-24T04:23:04.404Z,985.97
2023-04-24T04:24:04.378Z,986.01
2023-04-24T04:25:04.371Z,985.99
2023-04-24T04:26:04.436Z,986.03
2023-04-24T04:27:05.385Z,986.05
2023-04-24T04:28:04.363Z,986.04
2023-04-24T04:29:04.342Z,986.01
2023-04-24T04:30:04.338Z,986.04
2023-04-24T04:31:04.355Z,986.02
2023-04-24T04:32:04.348Z,986.02
2023-04-24T04:33:04.344Z,985.99
2023-04-24T04:34:04.321Z,986.08
2023-04-24T04:35:04.343Z,986.06
2023-04-24T04:36:04.285Z,986.14
2023-04-24T04:37:04.682Z,986.12
2023-04-24T04:38:04.280Z,986.12
2023-04-24T04:39:04.257Z,986.14
2023-04-24T04:40:04.265Z,986.10
2023-04-24T04:41:04.248Z,986.06
2023-04-24T04:42:05.107Z,986.11
2023-04-24T04:43:05.035Z,986.16
2023-04-24T04:44:04.221Z,986.16
2023-04-24T04:45:04.228Z,986.18
2023-04-24T04:46:04.244Z,986.24
2023-04-24T04:47:04.235Z,986.22
2023-04-24T04:48:04.217Z,986.25
2023-04-24T04:49:04.184Z,986.29
2023-04-24T04:50:04.153Z,986.23
2023-04-24T04:51:04.174Z,986.27
2023-04-24T04:52:04.147Z,986.26
2023-04-24T04:53:04.185Z,986.28
2023-04-24T04:54:04.149Z,986.26
2023-04-24T04:55:04.133Z,986.29
2023-04-24T04:56:04.128Z,986.30
2023-04-24T04:57:04.412Z,986.33
2023-04-24T04:58:05.148Z,986.29
2023-04-24T04:59:04.158Z,986.24
2023-04-24T05:00:04.108Z,986.24
2023-04-24T05:01:04.154Z,986.27
2023-04-24T05:02:04.102Z,986.30
2023-04-24T05:03:19.290Z,986.37
2023-04-24T05:04:06.219Z,986.30
2023-04-24T05:05:04.290Z,986.29
2023-04-24T05:06:04.089Z,986.36
2023-04-24T05:07:04.076Z,986.32
2023-04-24T05:08:05.658Z,986.32
2023-04-24T05:09:04.050Z,986.31
2023-04-24T05:10:04.086Z,986.23
2023-04-24T05:11:04.013Z,986.37
2023-04-24T05:12:04.015Z,986.38
2023-04-24T05:13:04.000Z,986.39
2023-04-24T05:14:04.003Z,986.35
2023-04-24T05:15:03.998Z,986.28
2023-04-24T05:16:04.011Z,986.24
2023-04-24T05:17:04.062Z,986.13
2023-04-24T05:18:04.096Z,986.17
2023-04-24T05:19:03.968Z,986.16
2023-04-24T05:20:04.013Z,986.08
2023-04-24T05:21:03.939Z,985.96
2023-04-24T05:22:04.609Z,986.01
2023-04-24T05:23:03.964Z,986.00
2023-04-24T05:24:03.939Z,986.02
2023-04-24T05:25:03.947Z,985.98
2023-04-24T05:26:06.172Z,985.97
2023-04-24T05:27:03.900Z,986.04
2023-04-24T05:28:03.917Z,985.93
2023-04-24T05:29:03.871Z,985.94
2023-04-24T05:30:03.871Z,985.99
2023-04-24T05:31:03.953Z,986.04
2023-04-24T05:32:03.841Z,986.14
2023-04-24T05:33:03.904Z,986.13
2023-04-24T05:34:03.848Z,986.23
2023-04-24T05:35:03.865Z,986.15
2023-04-24T05:36:03.823Z,986.23
2023-04-24T05:37:03.824Z,986.24
2023-04-24T05:38:03.828Z,986.28
2023-04-24T05:39:03.918Z,986.32
2023-04-24T05:40:03.829Z,986.33
2023-04-24T05:41:03.785Z,986.31
2023-04-24T05:42:03.771Z,986.33
2023-04-24T05:43:03.800Z,986.39
2023-04-24T05:44:03.777Z,986.45
2023-04-24T05:45:03.745Z,986.42
2023-04-24T05:46:03.797Z,986.53
2023-04-24T05:47:03.727Z,986.54
2023-04-24T05:48:03.801Z,986.58
2023-04-24T05:49:03.742Z,986.58
2023-04-24T05:50:03.717Z,986.64
2023-04-24T05:51:03.693Z,986.59
2023-04-24T05:52:03.721Z,986.59
2023-04-24T05:53:03.721Z,986.71
2023-04-24T05:54:03.709Z,986.73
2023-04-24T05:55:03.712Z,986.74
2023-04-24T05:56:03.703Z,986.78
2023-04-24T05:57:03.653Z,986.75
2023-04-24T05:58:03.646Z,986.73
2023-04-24T05:59:03.655Z,986.74
2023-04-24T06:00:03.667Z,986.60
2023-04-24T06:01:03.633Z,986.34
2023-04-24T06:02:03.671Z,986.30
2023-04-24T06:03:04.077Z,986.21
2023-04-24T06:04:03.704Z,986.06
2023-04-24T06:05:03.754Z,985.92
2023-04-24T06:06:03.638Z,985.78
2023-04-24T06:07:03.574Z,985.78
2023-04-24T06:08:03.565Z,985.82
2023-04-24T06:09:03.572Z,986.02
2023-04-24T06:10:03.592Z,985.90
2023-04-24T06:11:04.835Z,985.88
2023-04-24T06:12:04.545Z,986.05
2023-04-24T06:13:03.612Z,986.02
2023-04-24T06:14:03.637Z,985.97
2023-04-24T06:15:03.517Z,986.09
2023-04-24T06:16:03.542Z,986.08
2023-04-24T06:17:03.587Z,986.03
2023-04-24T06:18:03.540Z,985.91
2023-04-24T06:19:03.510Z,985.98
2023-04-24T06:20:03.484Z,985.76
2023-04-24T06:21:03.547Z,985.63
2023-04-24T06:22:04.474Z,985.66
2023-04-24T06:23:03.509Z,985.74
2023-04-24T06:24:03.451Z,985.69
2023-04-24T06:25:03.480Z,985.59
2023-04-24T06:26:03.449Z,985.54
2023-04-24T06:27:03.493Z,985.40
2023-04-24T06:28:03.469Z,985.39
2023-04-24T06:29:03.406Z,985.62
2023-04-24T06:30:03.413Z,985.56
2023-04-24T06:31:03.513Z,985.65
2023-04-24T06:32:03.430Z,985.74
2023-04-24T06:33:16.884Z,985.67
2023-04-24T06:34:05.352Z,985.70
2023-04-24T06:35:03.345Z,985.65
2023-04-24T06:36:03.354Z,985.70
2023-04-24T06:37:03.377Z,985.80
2023-04-24T06:38:03.334Z,985.90
2023-04-24T06:39:03.330Z,985.71
2023-04-24T06:40:03.979Z,985.57
2023-04-24T06:41:03.322Z,985.43
2023-04-24T06:42:03.348Z,985.55
2023-04-24T06:43:03.991Z,985.62
2023-04-24T06:44:03.298Z,985.61
2023-04-24T06:45:03.320Z,985.63
2023-04-24T06:46:03.318Z,985.50
2023-04-24T06:47:03.281Z,985.43
2023-04-24T06:48:03.394Z,985.49
2023-04-24T06:49:03.251Z,985.43
2023-04-24T06:50:03.305Z,985.50
2023-04-24T06:51:03.252Z,985.39
2023-04-24T06:52:03.263Z,985.38
2023-04-24T06:53:03.275Z,985.40
2023-04-24T06:54:03.215Z,985.36
2023-04-24T06:55:03.254Z,985.56
2023-04-24T06:56:03.189Z,985.32
2023-04-24T06:57:03.261Z,985.26
2023-04-24T06:58:03.223Z,985.32
2023-04-24T06:59:03.209Z,985.46
2023-04-24T07:00:03.175Z,985.55
2023-04-24T07:01:03.198Z,985.53
2023-04-24T07:02:03.175Z,985.41
2023-04-24T07:03:03.284Z,985.55
2023-04-24T07:04:03.385Z,985.43
2023-04-24T07:05:03.181Z,985.48
2023-04-24T07:06:03.237Z,985.41
2023-04-24T07:07:03.155Z,985.37
2023-04-24T07:08:03.145Z,985.36
2023-04-24T07:09:03.232Z,985.33
2023-04-24T07:10:03.115Z,985.32
2023-04-24T07:11:03.083Z,985.27
2023-04-24T07:12:03.138Z,985.34
2023-04-24T07:13:03.081Z,985.35
2023-04-24T07:14:03.262Z,985.20
2023-04-24T07:15:03.094Z,985.30
2023-04-24T07:16:03.101Z,985.28
2023-04-24T07:17:03.091Z,985.30
2023-04-24T07:18:05.492Z,985.22
2023-04-24T07:19:04.052Z,985.29
2023-04-24T07:20:03.067Z,985.31
2023-04-24T07:21:03.018Z,985.20
2023-04-24T07:22:02.996Z,985.36
2023-04-24T07:23:03.079Z,985.25
2023-04-24T07:24:02.989Z,985.30
2023-04-24T07:25:02.994Z,985.25
2023-04-24T07:26:03.008Z,985.28
2023-04-24T07:27:02.990Z,985.34
2023-04-24T07:28:02.982Z,985.26
2023-04-24T07:29:02.940Z,985.33
2023-04-24T07:30:02.930Z,985.37
2023-04-24T07:31:02.957Z,985.31
2023-04-24T07:32:04.360Z,985.30
2023-04-24T07:33:03.971Z,985.38
2023-04-24T07:34:02.916Z,985.41
2023-04-24T07:35:02.941Z,985.42
2023-04-24T07:36:02.906Z,985.36
2023-04-24T07:37:02.952Z,985.43
2023-04-24T07:38:02.929Z,985.44
2023-04-24T07:39:02.977Z,985.47
2023-04-24T07:40:02.864Z,985.37
2023-04-24T07:41:02.871Z,985.57
2023-04-24T07:42:02.857Z,985.65
2023-04-24T07:43:02.844Z,985.71
2023-04-24T07:44:02.877Z,985.69
2023-04-24T07:45:02.809Z,985.74
2023-04-24T07:46:02.837Z,985.84
2023-04-24T07:47:02.811Z,985.91
2023-04-24T07:48:02.940Z,985.94
2023-04-24T07:49:13.126Z,985.94
2023-04-24T07:50:04.827Z,985.81
2023-04-24T07:51:02.792Z,985.82
2023-04-24T07:52:02.768Z,985.94
2023-04-24T07:53:02.832Z,985.91
2023-04-24T07:54:02.770Z,985.93
2023-04-24T07:55:02.752Z,985.74
2023-04-24T07:56:02.774Z,985.76
2023-04-24T07:57:02.836Z,986.08
2023-04-24T07:58:02.758Z,986.06
2023-04-24T07:59:02.838Z,986.20
2023-04-24T08:00:02.700Z,986.26
2023-04-24T08:01:02.714Z,986.32
2023-04-24T08:02:02.692Z,986.40
2023-04-24T08:03:02.870Z,986.53
2023-04-24T08:04:02.886Z,986.55
2023-04-24T08:05:02.915Z,986.57
2023-04-24T08:06:02.836Z,986.80
2023-04-24T08:07:02.647Z,986.70
2023-04-24T08:08:02.646Z,986.79
2023-04-24T08:09:02.635Z,986.80
2023-04-24T08:10:02.689Z,986.87
2023-04-24T08:11:02.647Z,986.85
2023-04-24T08:12:02.631Z,986.91
2023-04-24T08:13:02.707Z,986.72
2023-04-24T08:14:02.654Z,986.88
2023-04-24T08:15:02.673Z,986.94
2023-04-24T08:16:02.675Z,986.95
2023-04-24T08:17:02.599Z,986.94
2023-04-24T08:18:02.683Z,986.95
2023-04-24T08:19:02.612Z,986.93
2023-04-24T08:20:02.784Z,986.98
2023-04-24T08:21:02.628Z,986.92
2023-04-24T08:22:02.606Z,986.87
2023-04-24T08:23:02.618Z,986.94
2023-04-24T08:24:03.510Z,986.89
2023-04-24T08:25:02.583Z,986.90
2023-04-24T08:26:02.578Z,986.93
2023-04-24T08:27:02.506Z,987.04
2023-04-24T08:28:02.479Z,987.05
2023-04-24T08:29:02.504Z,987.03
2023-04-24T08:30:02.482Z,987.00
2023-04-24T08:31:02.488Z,987.01
2023-04-24T08:32:02.739Z,987.01
2023-04-24T08:33:02.504Z,986.95
2023-04-24T08:34:02.429Z,986.97
2023-04-24T08:35:02.456Z,986.99
2023-04-24T08:36:02.426Z,986.87
2023-04-24T08:37:02.458Z,986.97
2023-04-24T08:38:02.426Z,987.03
2023-04-24T08:39:02.397Z,986.76
2023-04-24T08:40:02.378Z,987.05
2023-04-24T08:41:02.403Z,987.13
2023-04-24T08:42:02.443Z,987.10
2023-04-24T08:43:02.363Z,987.13
2023-04-24T08:44:03.386Z,987.09
2023-04-24T08:45:02.330Z,987.12
2023-04-24T08:46:05.566Z,987.21
2023-04-24T08:47:02.325Z,987.15
2023-04-24T08:48:02.488Z,987.12
2023-04-24T08:49:02.342Z,987.24
2023-04-24T08:50:02.379Z,987.27
2023-04-24T08:51:02.330Z,987.23
2023-04-24T08:52:02.275Z,987.15
2023-04-24T08:53:04.467Z,987.15
2023-04-24T08:54:02.269Z,987.20
2023-04-24T08:55:02.279Z,987.24
2023-04-24T08:56:02.275Z,987.21
2023-04-24T08:57:02.285Z,987.24
2023-04-24T08:58:02.253Z,987.22
2023-04-24T08:59:02.252Z,987.26
2023-04-24T09:00:02.278Z,987.23
2023-04-24T09:01:02.247Z,987.20
2023-04-24T09:02:02.222Z,987.19
2023-04-24T09:03:02.333Z,987.22
2023-04-24T09:04:02.381Z,987.17
2023-04-24T09:05:02.224Z,987.17
2023-04-24T09:06:02.193Z,987.15
2023-04-24T09:07:02.183Z,987.15
2023-04-24T09:08:02.176Z,987.27
2023-04-24T09:09:02.211Z,987.27
2023-04-24T09:10:02.176Z,987.24
2023-04-24T09:11:02.200Z,987.26
2023-04-24T09:12:02.164Z,987.19
2023-04-24T09:13:02.127Z,987.07
2023-04-24T09:14:02.159Z,987.15
2023-04-24T09:15:02.171Z,987.11
2023-04-24T09:16:02.177Z,987.13
2023-04-24T09:17:02.221Z,987.15
2023-04-24T09:18:02.134Z,986.90
2023-04-24T09:19:02.167Z,987.04
2023-04-24T09:20:02.117Z,987.06
2023-04-24T09:21:02.117Z,987.04
2023-04-24T09:22:02.053Z,986.99
2023-04-24T09:23:02.058Z,987.08
2023-04-24T09:24:02.137Z,987.07
2023-04-24T09:25:02.045Z,987.16
2023-04-24T09:26:02.021Z,987.07
2023-04-24T09:27:02.062Z,987.08
2023-04-24T09:28:02.756Z,987.16
2023-04-24T09:29:02.014Z,987.12
2023-04-24T09:30:02.038Z,987.22
2023-04-24T09:31:02.009Z,987.24
2023-04-24T09:32:02.144Z,987.27
2023-04-24T09:33:02.037Z,987.42
2023-04-24T09:34:02.578Z,987.31
2023-04-24T09:35:03.023Z,987.35
2023-04-24T09:36:01.952Z,987.34
2023-04-24T09:37:01.968Z,987.44
2023-04-24T09:38:01.939Z,987.37
2023-04-24T09:39:01.992Z,987.46
2023-04-24T09:40:01.973Z,987.45
2023-04-24T09:41:01.898Z,987.48
2023-04-24T09:42:01.903Z,987.41
2023-04-24T09:43:01.901Z,987.61
2023-04-24T09:44:01.923Z,987.64
2023-04-24T09:45:11.973Z,987.71
2023-04-24T09:46:03.894Z,987.71
2023-04-24T09:47:01.880Z,987.75
2023-04-24T09:48:01.945Z,987.61
2023-04-24T09:49:02.642Z,987.74
2023-04-24T09:50:01.866Z,987.62
2023-04-24T09:51:01.847Z,987.63
2023-04-24T09:52:01.881Z,987.58
2023-04-24T09:53:01.828Z,987.65
2023-04-24T09:54:01.802Z,987.65
2023-04-24T09:55:01.885Z,987.70
2023-04-24T09:56:01.816Z,987.68
2023-04-24T09:57:01.807Z,987.64
2023-04-24T09:58:33.715Z,987.75
2023-04-24T09:59:34.578Z,987.63
2023-04-24T10:00:34.216Z,987.73
2023-04-24T10:01:34.283Z,987.71
2023-04-24T10:02:01.812Z,987.75
2023-04-24T10:03:33.717Z,987.83
2023-04-24T10:04:01.744Z,987.86
2023-04-24T10:05:34.263Z,987.94
2023-04-24T10:06:01.734Z,987.94
2023-04-24T10:07:01.717Z,987.81
2023-04-24T10:08:01.721Z,987.92
2023-04-24T10:09:01.723Z,987.92
2023-04-24T10:10:01.772Z,987.87
2023-04-24T10:11:01.685Z,987.98
2023-04-24T10:12:01.688Z,987.96
2023-04-24T10:13:01.710Z,987.97
2023-04-24T10:14:01.661Z,988.04
2023-04-24T10:15:01.638Z,988.15
2023-04-24T10:16:01.669Z,987.99
2023-04-24T10:17:01.643Z,988.10
2023-04-24T10:18:01.689Z,988.04
2023-04-24T10:19:01.622Z,988.00
2023-04-24T10:20:01.604Z,988.09
2023-04-24T10:21:01.608Z,988.20
2023-04-24T10:22:01.627Z,988.22
2023-04-24T10:23:01.607Z,988.27
2023-04-24T10:24:01.564Z,988.25
2023-04-24T10:25:01.589Z,988.31
2023-04-24T10:26:01.644Z,988.30
2023-04-24T10:27:01.552Z,988.15
2023-04-24T10:28:01.529Z,988.18
2023-04-24T10:29:01.538Z,988.24
2023-04-24T10:30:01.600Z,988.24
2023-04-24T10:31:01.558Z,988.39
2023-04-24T10:32:01.539Z,988.34
2023-04-24T10:33:01.560Z,988.37
2023-04-24T10:34:01.504Z,988.27
2023-04-24T10:35:01.541Z,988.36
2023-04-24T10:36:01.509Z,988.35
2023-04-24T10:37:01.514Z,988.23
2023-04-24T10:38:01.532Z,988.30
2023-04-24T10:39:01.482Z,988.18
2023-04-24T10:40:01.554Z,988.19
2023-04-24T10:41:01.476Z,988.17
2023-04-24T10:42:01.524Z,988.03
2023-04-24T10:43:01.490Z,988.00
2023-04-24T10:44:01.468Z,987.86
2023-04-24T10:45:01.481Z,987.94
2023-04-24T10:46:01.445Z,987.96
2023-04-24T10:47:01.511Z,987.85
2023-04-24T10:48:03.438Z,987.91
2023-04-24T10:49:01.378Z,987.91
2023-04-24T10:50:01.489Z,987.92
2023-04-24T10:51:01.429Z,987.85
2023-04-24T10:52:01.378Z,987.69
2023-04-24T10:53:01.373Z,987.81
2023-04-24T10:54:01.351Z,987.90
2023-04-24T10:55:01.330Z,987.93
2023-04-24T10:56:01.444Z,987.98
2023-04-24T10:57:02.418Z,987.90
2023-04-24T10:58:01.324Z,988.01
2023-04-24T10:59:01.342Z,988.03
2023-04-24T11:00:01.318Z,988.08
2023-04-24T11:01:01.394Z,988.37
2023-04-24T11:02:01.796Z,988.37
2023-04-24T11:03:01.561Z,988.43
2023-04-24T11:04:01.459Z,988.57
2023-04-24T11:05:02.324Z,988.38
2023-04-24T11:06:01.349Z,988.53
2023-04-24T11:07:01.329Z,988.57
2023-04-24T11:08:01.299Z,988.69
2023-04-24T11:09:01.249Z,988.64
2023-04-24T11:10:01.204Z,988.58
2023-04-24T11:11:01.242Z,988.52
2023-04-24T11:12:01.219Z,988.63
2023-04-24T11:13:01.249Z,988.56
2023-04-24T11:14:01.188Z,988.59
2023-04-24T11:15:01.563Z,988.59
2023-04-24T11:16:01.247Z,988.70
2023-04-24T11:17:01.267Z,988.58
2023-04-24T11:18:01.273Z,988.53
2023-04-24T11:19:01.181Z,988.53
2023-04-24T11:20:04.831Z,988.49
2023-04-24T11:21:02.189Z,988.48
2023-04-24T11:22:01.177Z,988.49
2023-04-24T11:23:01.200Z,988.49
2023-04-24T11:24:01.128Z,988.49
2023-04-24T11:25:01.234Z,988.41
2023-04-24T11:26:01.264Z,988.24
2023-04-24T11:27:01.089Z,988.36
2023-04-24T11:28:01.115Z,988.38
2023-04-24T11:29:01.349Z,988.32
2023-04-24T11:30:01.383Z,988.34
2023-04-24T11:31:01.072Z,988.41
2023-04-24T11:32:01.090Z,988.31
2023-04-24T11:33:01.164Z,988.36
2023-04-24T11:34:01.074Z,988.31
2023-04-24T11:35:01.045Z,988.35
2023-04-24T11:36:01.035Z,988.19
2023-04-24T11:37:01.065Z,988.35
2023-04-24T11:39:02.038Z,988.44
2023-04-24T11:40:02.086Z,988.47
2023-04-24T11:41:00.986Z,988.55
2023-04-24T11:42:01.090Z,988.56
2023-04-24T11:43:00.988Z,988.64
2023-04-24T11:44:00.961Z,988.61
2023-04-24T11:45:01.338Z,988.68
2023-04-24T11:46:01.233Z,988.74
2023-04-24T11:47:01.967Z,988.67
2023-04-24T11:48:00.935Z,988.80
2023-04-24T11:49:00.920Z,988.74
2023-04-24T11:50:01.659Z,988.97
2023-04-24T11:51:00.930Z,988.88
2023-04-24T11:52:01.367Z,988.94
2023-04-24T11:53:01.889Z,989.11
2023-04-24T11:54:04.419Z,988.99
2023-04-24T11:55:02.246Z,989.12
2023-04-24T11:56:00.887Z,989.08
2023-04-24T11:57:00.874Z,989.17
2023-04-24T11:58:00.946Z,989.10
2023-04-24T11:59:00.864Z,989.07
2023-04-24T12:00:01.152Z,989.10
2023-04-24T12:01:00.835Z,989.10
2023-04-24T12:02:00.907Z,989.08
2023-04-24T12:03:01.046Z,989.17
2023-04-24T12:04:01.004Z,989.24
2023-04-24T12:05:01.137Z,989.27
2023-04-24T12:06:00.812Z,989.27
2023-04-24T12:07:00.770Z,989.30
2023-04-24T12:08:00.853Z,989.32
2023-04-24T12:09:04.778Z,989.28
2023-04-24T12:10:03.293Z,989.25
2023-04-24T12:11:00.775Z,989.22
2023-04-24T12:12:00.803Z,989.30
2023-04-24T12:13:00.749Z,989.26
2023-04-24T12:14:00.709Z,989.31
2023-04-24T12:15:01.125Z,989.30
2023-04-24T12:16:00.829Z,989.34
2023-04-24T12:17:00.727Z,989.32
2023-04-24T12:18:00.917Z,989.40
2023-04-24T12:19:00.694Z,989.44
2023-04-24T12:20:00.691Z,989.36
2023-04-24T12:21:01.323Z,989.23
2023-04-24T12:22:01.668Z,989.26
2023-04-24T12:23:00.711Z,989.25
2023-04-24T12:24:00.727Z,989.16
2023-04-24T12:25:00.664Z,989.26
2023-04-24T12:26:00.635Z,989.28
2023-04-24T12:27:00.618Z,989.12
2023-04-24T12:28:00.665Z,989.13
2023-04-24T12:29:00.596Z,989.14
2023-04-24T12:30:00.610Z,989.19
2023-04-24T12:31:00.686Z,989.11
2023-04-24T12:32:00.633Z,989.20
2023-04-24T12:33:01.772Z,989.16
2023-04-24T12:34:00.620Z,989.13
2023-04-24T12:35:00.576Z,989.04
2023-04-24T12:36:00.607Z,989.28
2023-04-24T12:37:00.650Z,989.22
2023-04-24T12:38:00.638Z,989.17
2023-04-24T12:39:00.634Z,989.20
2023-04-24T12:40:00.528Z,989.28
2023-04-24T12:41:00.534Z,989.30
2023-04-24T12:42:00.554Z,989.28
2023-04-24T12:43:00.521Z,989.22
2023-04-24T12:44:00.711Z,989.32